createdAt,value
2018-12-07T00:00:11.335Z,95.34
2018-12-07T00:01:22.304Z,95.34
2018-12-07T00:02:11.314Z,95.55
2018-12-07T00:03:11.308Z,96.29
2018-12-07T00:04:11.297Z,96.29
2018-12-07T00:05:11.291Z,96.19
2018-12-07T00:06:11.274Z,96.25
2018-12-07T00:07:11.285Z,96.29
2018-12-07T00:08:11.256Z,96.19
2018-12-07T00:09:11.247Z,96.08
2018-12-07T00:10:11.229Z,95.87
2018-12-07T00:11:11.224Z,95.93
2018-12-07T00:12:11.213Z,95.97
2018-12-07T00:13:11.246Z,95.97
2018-12-07T00:14:11.193Z,96.45
2018-12-07T00:15:11.182Z,96.71
2018-12-07T00:16:11.165Z,96.39
2018-12-07T00:17:11.155Z,96.39
2018-12-07T00:18:11.154Z,97.13
2018-12-07T00:19:11.200Z,96.71
2018-12-07T00:20:11.123Z,96.92
2018-12-07T00:21:11.120Z,97.03
2018-12-07T00:22:11.106Z,97.03
2018-12-07T00:23:11.091Z,97.13
2018-12-07T00:24:11.086Z,97.03
2018-12-07T00:25:11.123Z,97.03
2018-12-07T00:26:11.062Z,97.03
2018-12-07T00:27:11.061Z,96.92
2018-12-07T00:28:11.042Z,97.28
2018-12-07T00:29:11.032Z,96.75
2018-12-07T00:30:11.023Z,97.28
2018-12-07T00:31:11.295Z,97.34
2018-12-07T00:32:23.104Z,97.49
2018-12-07T00:33:10.989Z,97.34
2018-12-07T00:34:10.980Z,96.86
2018-12-07T00:35:10.969Z,97.07
2018-12-07T00:36:10.959Z,97.28
2018-12-07T00:37:11.020Z,97.24
2018-12-07T00:38:10.939Z,97.45
2018-12-07T00:39:10.923Z,97.17
2018-12-07T00:40:10.924Z,97.03
2018-12-07T00:41:10.914Z,96.71
2018-12-07T00:42:10.893Z,97.45
2018-12-07T00:43:10.921Z,97.28
2018-12-07T00:44:10.868Z,97.49
2018-12-07T00:45:10.860Z,97.76
2018-12-07T00:46:10.850Z,97.49
2018-12-07T00:47:10.840Z,97.28
2018-12-07T00:48:10.827Z,97.60
2018-12-07T00:49:10.857Z,97.60
2018-12-07T00:50:10.809Z,97.81
2018-12-07T00:51:10.794Z,98.44
2018-12-07T00:52:10.796Z,98.44
2018-12-07T00:53:10.773Z,98.33
2018-12-07T00:54:10.774Z,98.33
2018-12-07T00:55:10.792Z,98.44
2018-12-07T00:56:10.743Z,98.23
2018-12-07T00:57:10.737Z,98.23
2018-12-07T00:58:10.730Z,98.27
2018-12-07T00:59:10.714Z,98.27
2018-12-07T01:00:10.705Z,98.27
2018-12-07T01:01:10.808Z,98.91
2018-12-07T01:02:10.681Z,98.91
2018-12-07T01:03:20.536Z,98.69
2018-12-07T01:04:10.660Z,98.49
2018-12-07T01:05:17.636Z,98.59
2018-12-07T01:06:10.636Z,98.38
2018-12-07T01:07:10.672Z,98.38
2018-12-07T01:08:10.619Z,98.17
2018-12-07T01:09:10.624Z,98.49
2018-12-07T01:10:10.598Z,98.38
2018-12-07T01:11:10.595Z,98.69
2018-12-07T01:12:10.574Z,98.69
2018-12-07T01:13:10.583Z,98.49
2018-12-07T01:14:10.559Z,98.74
2018-12-07T01:15:10.544Z,98.27
2018-12-07T01:16:10.532Z,98.32
2018-12-07T01:17:10.525Z,98.53
2018-12-07T01:18:10.507Z,98.32
2018-12-07T01:19:10.542Z,98.53
2018-12-07T01:20:10.487Z,99.05
2018-12-07T01:21:10.477Z,98.32
2018-12-07T01:22:10.472Z,98.95
2018-12-07T01:23:10.463Z,98.74
2018-12-07T01:24:10.447Z,98.63
2018-12-07T01:25:11.231Z,98.95
2018-12-07T01:26:10.428Z,99.16
2018-12-07T01:27:10.411Z,99.11
2018-12-07T01:28:10.401Z,99.16
2018-12-07T01:29:10.398Z,99.16
2018-12-07T01:30:10.383Z,98.95
2018-12-07T01:31:10.410Z,99.05
2018-12-07T01:32:10.367Z,98.95
2018-12-07T01:33:10.352Z,99.05
2018-12-07T01:34:10.342Z,99.05
2018-12-07T01:35:10.325Z,99.05
2018-12-07T01:36:21.369Z,98.95
2018-12-07T01:37:10.322Z,98.99
2018-12-07T01:38:10.304Z,99.52
2018-12-07T01:39:10.290Z,99.84
2018-12-07T01:40:10.281Z,99.27
2018-12-07T01:41:10.265Z,99.48
2018-12-07T01:42:10.366Z,99.73
2018-12-07T01:43:10.250Z,99.48
2018-12-07T01:44:10.236Z,99.52
2018-12-07T01:45:10.226Z,99.41
2018-12-07T01:46:10.210Z,99.41
2018-12-07T01:47:10.205Z,99.58
2018-12-07T01:48:11.120Z,99.63
2018-12-07T01:49:10.178Z,99.31
2018-12-07T01:50:10.169Z,99.16
2018-12-07T01:51:10.156Z,99.48
2018-12-07T01:52:10.153Z,99.90
2018-12-07T01:53:10.140Z,99.79
2018-12-07T01:54:10.165Z,99.58
2018-12-07T01:55:10.125Z,99.58
2018-12-07T01:56:10.108Z,99.79
2018-12-07T01:57:10.094Z,99.58
2018-12-07T01:58:10.081Z,99.99
2018-12-07T01:59:10.077Z,99.99
2018-12-07T02:00:10.858Z,99.58
2018-12-07T02:01:10.056Z,99.90
2018-12-07T02:02:10.040Z,99.90
2018-12-07T02:03:10.032Z,99.90
2018-12-07T02:04:10.016Z,99.99
2018-12-07T02:05:10.009Z,99.90
2018-12-07T02:06:10.787Z,99.79
2018-12-07T02:07:20.957Z,99.79
2018-12-07T02:08:09.979Z,99.99
2018-12-07T02:09:09.966Z,99.99
2018-12-07T02:10:09.960Z,99.99
2018-12-07T02:11:09.952Z,99.99
2018-12-07T02:12:09.970Z,99.99
2018-12-07T02:13:09.922Z,99.99
2018-12-07T02:14:09.909Z,99.95
2018-12-07T02:15:09.905Z,99.99
2018-12-07T02:16:09.891Z,99.99
2018-12-07T02:17:09.878Z,99.99
2018-12-07T02:18:09.903Z,99.99
2018-12-07T02:19:09.860Z,99.99
2018-12-07T02:20:09.849Z,99.99
2018-12-07T02:21:09.851Z,99.99
2018-12-07T02:22:09.826Z,99.99
2018-12-07T02:23:09.814Z,99.99
2018-12-07T02:24:09.846Z,99.99
2018-12-07T02:25:09.795Z,99.99
2018-12-07T02:26:09.788Z,99.99
2018-12-07T02:27:09.781Z,99.99
2018-12-07T02:28:09.761Z,99.99
2018-12-07T02:29:09.751Z,99.99
2018-12-07T02:30:09.864Z,99.99
2018-12-07T02:31:09.735Z,99.99
2018-12-07T02:32:09.725Z,99.99
2018-12-07T02:33:09.724Z,99.99
2018-12-07T02:34:09.705Z,99.99
2018-12-07T02:35:09.693Z,99.99
2018-12-07T02:36:09.717Z,99.99
2018-12-07T02:37:09.670Z,99.99
2018-12-07T02:38:21.056Z,99.99
2018-12-07T02:39:09.648Z,99.99
2018-12-07T02:40:09.634Z,99.99
2018-12-07T02:41:09.626Z,99.99
2018-12-07T02:42:09.650Z,99.99
2018-12-07T02:43:09.614Z,99.99
2018-12-07T02:44:09.597Z,99.99
2018-12-07T02:45:09.582Z,99.99
2018-12-07T02:46:09.582Z,99.99
2018-12-07T02:47:09.567Z,99.99
2018-12-07T02:48:10.320Z,99.99
2018-12-07T02:49:09.539Z,99.99
2018-12-07T02:50:09.531Z,99.99
2018-12-07T02:51:09.524Z,99.99
2018-12-07T02:52:09.509Z,99.99
2018-12-07T02:53:09.499Z,99.99
2018-12-07T02:54:10.325Z,99.99
2018-12-07T02:55:09.481Z,99.99
2018-12-07T02:56:09.473Z,99.99
2018-12-07T02:57:09.461Z,99.99
2018-12-07T02:58:09.455Z,99.99
2018-12-07T02:59:09.447Z,99.99
2018-12-07T03:00:09.465Z,99.99
2018-12-07T03:01:09.414Z,99.99
2018-12-07T03:02:09.404Z,99.99
2018-12-07T03:03:09.391Z,99.99
2018-12-07T03:04:09.385Z,99.99
2018-12-07T03:05:09.368Z,99.99
2018-12-07T03:06:09.461Z,99.99
2018-12-07T03:07:09.355Z,99.99
2018-12-07T03:08:09.340Z,99.99
2018-12-07T03:09:20.544Z,99.99
2018-12-07T03:10:09.319Z,99.99
2018-12-07T03:11:09.307Z,99.99
2018-12-07T03:12:09.312Z,99.99
2018-12-07T03:13:09.288Z,99.99
2018-12-07T03:14:09.281Z,99.99
2018-12-07T03:15:09.261Z,99.99
2018-12-07T03:16:09.257Z,99.99
2018-12-07T03:17:09.253Z,99.99
2018-12-07T03:18:09.306Z,99.99
2018-12-07T03:19:09.226Z,99.99
2018-12-07T03:20:09.217Z,99.99
2018-12-07T03:21:09.199Z,99.99
2018-12-07T03:22:09.194Z,99.99
2018-12-07T03:23:09.186Z,99.99
2018-12-07T03:24:09.405Z,99.99
2018-12-07T03:25:09.215Z,99.99
2018-12-07T03:26:09.146Z,99.99
2018-12-07T03:27:09.142Z,99.99
2018-12-07T03:28:09.125Z,99.99
2018-12-07T03:29:09.118Z,99.99
2018-12-07T03:30:09.402Z,99.99
2018-12-07T03:31:09.100Z,99.99
2018-12-07T03:32:09.083Z,99.99
2018-12-07T03:33:09.076Z,99.99
2018-12-07T03:34:09.067Z,99.99
2018-12-07T03:35:09.060Z,99.99
2018-12-07T03:36:09.397Z,99.99
2018-12-07T03:37:09.033Z,99.99
2018-12-07T03:38:09.020Z,99.99
2018-12-07T03:39:09.009Z,99.99
2018-12-07T03:40:20.428Z,99.99
2018-12-07T03:41:08.988Z,99.99
2018-12-07T03:42:09.008Z,99.99
2018-12-07T03:43:08.969Z,99.99
2018-12-07T03:44:08.954Z,99.99
2018-12-07T03:45:08.962Z,99.99
2018-12-07T03:46:08.935Z,99.99
2018-12-07T03:47:08.922Z,99.99
2018-12-07T03:48:09.424Z,99.99
2018-12-07T03:49:08.907Z,99.96
2018-12-07T03:50:08.889Z,99.99
2018-12-07T03:51:08.884Z,99.99
2018-12-07T03:52:08.870Z,99.99
2018-12-07T03:53:08.862Z,99.99
2018-12-07T03:54:10.632Z,99.69
2018-12-07T03:55:08.843Z,99.99
2018-12-07T03:56:08.828Z,99.99
2018-12-07T03:57:08.817Z,99.99
2018-12-07T03:58:08.803Z,99.99
2018-12-07T03:59:08.797Z,99.99
2018-12-07T04:00:08.823Z,99.99
2018-12-07T04:01:08.773Z,99.99
2018-12-07T04:02:08.768Z,99.99
2018-12-07T04:03:08.751Z,99.99
2018-12-07T04:04:08.743Z,99.99
2018-12-07T04:05:08.735Z,99.99
2018-12-07T04:06:08.902Z,99.99
2018-12-07T04:07:08.708Z,99.99
2018-12-07T04:08:08.698Z,99.99
2018-12-07T04:09:08.695Z,99.99
2018-12-07T04:10:08.678Z,99.99
2018-12-07T04:11:18.944Z,99.69
2018-12-07T04:12:08.661Z,99.99
2018-12-07T04:13:08.644Z,99.99
2018-12-07T04:14:08.637Z,99.99
2018-12-07T04:15:08.633Z,99.99
2018-12-07T04:16:08.611Z,99.99
2018-12-07T04:17:08.627Z,99.99
2018-12-07T04:18:08.597Z,99.99
2018-12-07T04:19:08.581Z,99.99
2018-12-07T04:20:08.573Z,99.99
2018-12-07T04:21:08.564Z,99.99
2018-12-07T04:22:08.556Z,99.64
2018-12-07T04:23:08.564Z,99.64
2018-12-07T04:24:08.533Z,99.96
2018-12-07T04:25:08.519Z,99.99
2018-12-07T04:26:08.507Z,99.99
2018-12-07T04:27:08.502Z,99.99
2018-12-07T04:28:08.506Z,99.99
2018-12-07T04:29:08.520Z,99.90
2018-12-07T04:30:08.464Z,99.96
2018-12-07T04:31:08.462Z,99.99
2018-12-07T04:32:08.459Z,99.75
2018-12-07T04:33:08.439Z,99.85
2018-12-07T04:34:08.428Z,99.64
2018-12-07T04:35:08.457Z,99.54
2018-12-07T04:36:08.409Z,99.90
2018-12-07T04:37:08.397Z,99.43
2018-12-07T04:38:08.384Z,99.48
2018-12-07T04:39:08.379Z,99.75
2018-12-07T04:40:08.362Z,99.58
2018-12-07T04:41:08.419Z,99.79
2018-12-07T04:42:18.768Z,99.54
2018-12-07T04:43:08.332Z,99.75
2018-12-07T04:44:08.339Z,99.90
2018-12-07T04:45:08.308Z,99.54
2018-12-07T04:46:08.304Z,99.64
2018-12-07T04:47:08.313Z,99.54
2018-12-07T04:48:08.300Z,99.75
2018-12-07T04:49:08.282Z,99.99
2018-12-07T04:50:08.254Z,99.54
2018-12-07T04:51:08.249Z,99.54
2018-12-07T04:52:08.232Z,99.64
2018-12-07T04:53:16.963Z,99.54
2018-12-07T04:54:08.218Z,99.85
2018-12-07T04:55:15.186Z,99.54
2018-12-07T04:56:08.190Z,99.75
2018-12-07T04:57:08.188Z,99.85
2018-12-07T04:58:08.174Z,99.96
2018-12-07T04:59:08.196Z,99.96
2018-12-07T05:00:08.157Z,99.99
2018-12-07T05:01:08.143Z,99.99
2018-12-07T05:02:08.127Z,99.99
2018-12-07T05:03:08.126Z,99.99
2018-12-07T05:04:08.109Z,99.99
2018-12-07T05:05:08.485Z,99.99
2018-12-07T05:06:08.088Z,99.96
2018-12-07T05:07:08.079Z,99.99
2018-12-07T05:08:08.076Z,99.96
2018-12-07T05:09:08.056Z,99.99
2018-12-07T05:10:08.049Z,99.99
2018-12-07T05:11:08.083Z,99.96
2018-12-07T05:12:08.023Z,99.99
2018-12-07T05:13:08.011Z,99.99
2018-12-07T05:14:08.004Z,99.99
2018-12-07T05:15:07.992Z,99.99
2018-12-07T05:16:07.989Z,99.99
2018-12-07T05:17:07.987Z,99.99
2018-12-07T05:18:07.957Z,99.99
2018-12-07T05:19:07.952Z,99.99
2018-12-07T05:20:07.946Z,99.99
2018-12-07T05:21:07.926Z,99.99
2018-12-07T05:22:07.917Z,99.99
2018-12-07T05:23:07.925Z,99.99
2018-12-07T05:24:07.902Z,99.99
2018-12-07T05:25:07.896Z,99.99
2018-12-07T05:26:17.940Z,99.99
2018-12-07T05:27:07.866Z,99.99
2018-12-07T05:28:07.862Z,99.99
2018-12-07T05:29:07.882Z,99.99
2018-12-07T05:30:07.848Z,99.99
2018-12-07T05:31:07.829Z,99.99
2018-12-07T05:32:07.827Z,99.99
2018-12-07T05:33:07.805Z,99.99
2018-12-07T05:34:07.791Z,99.99
2018-12-07T05:35:08.026Z,99.99
2018-12-07T05:36:07.774Z,99.99
2018-12-07T05:37:07.759Z,99.99
2018-12-07T05:38:07.754Z,99.99
2018-12-07T05:39:07.744Z,99.99
2018-12-07T05:40:07.735Z,99.99
2018-12-07T05:41:08.496Z,99.99
2018-12-07T05:42:07.707Z,99.99
2018-12-07T05:43:07.698Z,99.99
2018-12-07T05:44:07.688Z,99.99
2018-12-07T05:45:07.678Z,99.99
2018-12-07T05:46:07.669Z,99.99
2018-12-07T05:47:07.673Z,99.99
2018-12-07T05:48:07.649Z,99.99
2018-12-07T05:49:07.631Z,99.99
2018-12-07T05:50:07.626Z,99.99
2018-12-07T05:51:07.615Z,99.99
2018-12-07T05:52:07.605Z,99.99
2018-12-07T05:53:07.995Z,99.99
2018-12-07T05:54:07.585Z,99.99
2018-12-07T05:55:07.572Z,99.99
2018-12-07T05:56:07.562Z,99.99
2018-12-07T05:57:18.221Z,99.99
2018-12-07T05:58:07.542Z,99.99
2018-12-07T05:59:07.547Z,99.99
2018-12-07T06:00:07.518Z,99.99
2018-12-07T06:01:07.507Z,99.99
2018-12-07T06:02:07.510Z,99.99
2018-12-07T06:03:07.492Z,99.99
2018-12-07T06:04:07.479Z,99.99
2018-12-07T06:05:08.242Z,99.99
2018-12-07T06:06:07.452Z,99.99
2018-12-07T06:07:07.446Z,99.99
2018-12-07T06:08:07.431Z,99.99
2018-12-07T06:09:07.427Z,99.99
2018-12-07T06:10:07.420Z,99.99
2018-12-07T06:11:07.533Z,99.99
2018-12-07T06:12:07.392Z,99.99
2018-12-07T06:13:07.377Z,99.99
2018-12-07T06:14:07.374Z,99.99
2018-12-07T06:15:07.360Z,99.99
2018-12-07T06:16:07.359Z,99.99
2018-12-07T06:17:07.369Z,99.99
2018-12-07T06:18:07.332Z,99.99
2018-12-07T06:19:07.325Z,99.99
2018-12-07T06:20:07.304Z,99.99
2018-12-07T06:21:07.295Z,99.99
2018-12-07T06:22:07.292Z,99.99
2018-12-07T06:23:07.321Z,99.99
2018-12-07T06:24:07.278Z,99.99
2018-12-07T06:25:07.252Z,99.99
2018-12-07T06:26:07.247Z,99.99
2018-12-07T06:27:08.370Z,99.99
2018-12-07T06:28:18.064Z,99.99
2018-12-07T06:29:07.214Z,99.99
2018-12-07T06:30:07.201Z,99.99
2018-12-07T06:31:07.189Z,99.99
2018-12-07T06:32:07.177Z,99.99
2018-12-07T06:33:07.177Z,99.99
2018-12-07T06:34:07.180Z,99.99
2018-12-07T06:35:07.153Z,99.99
2018-12-07T06:36:07.138Z,99.99
2018-12-07T06:37:07.131Z,99.99
2018-12-07T06:38:07.121Z,99.99
2018-12-07T06:39:07.107Z,99.99
2018-12-07T06:40:08.063Z,99.99
2018-12-07T06:41:07.093Z,99.99
2018-12-07T06:42:07.072Z,99.99
2018-12-07T06:43:07.064Z,99.99
2018-12-07T06:44:07.053Z,99.99
2018-12-07T06:45:07.043Z,99.99
2018-12-07T06:46:07.068Z,99.99
2018-12-07T06:47:07.031Z,99.99
2018-12-07T06:48:07.010Z,99.99
2018-12-07T06:49:06.996Z,99.99
2018-12-07T06:50:06.994Z,99.99
2018-12-07T06:51:06.977Z,99.99
2018-12-07T06:52:07.816Z,99.99
2018-12-07T06:53:06.959Z,99.99
2018-12-07T06:54:06.942Z,99.99
2018-12-07T06:55:06.938Z,99.99
2018-12-07T06:56:06.928Z,99.99
2018-12-07T06:57:06.914Z,99.99
2018-12-07T06:58:06.951Z,99.99
2018-12-07T06:59:17.045Z,99.99
2018-12-07T07:00:06.882Z,99.99
2018-12-07T07:01:06.876Z,99.99
2018-12-07T07:02:06.861Z,99.99
2018-12-07T07:03:06.852Z,99.99
2018-12-07T07:04:06.881Z,99.99
2018-12-07T07:05:06.833Z,99.99
2018-12-07T07:06:06.819Z,99.99
2018-12-07T07:07:06.820Z,99.99
2018-12-07T07:08:06.799Z,99.99
2018-12-07T07:09:06.790Z,99.99
2018-12-07T07:10:06.820Z,99.99
2018-12-07T07:11:06.765Z,99.99
2018-12-07T07:12:06.756Z,99.99
2018-12-07T07:13:06.743Z,99.99
2018-12-07T07:14:06.732Z,99.99
2018-12-07T07:15:06.721Z,99.99
2018-12-07T07:16:07.485Z,99.99
2018-12-07T07:17:06.704Z,99.99
2018-12-07T07:18:06.697Z,99.99
2018-12-07T07:19:06.681Z,99.99
2018-12-07T07:20:06.671Z,99.99
2018-12-07T07:21:06.662Z,99.99
2018-12-07T07:22:07.072Z,99.99
2018-12-07T07:23:06.641Z,99.51
2018-12-07T07:24:06.634Z,99.98
2018-12-07T07:25:06.626Z,99.93
2018-12-07T07:26:06.605Z,99.76
2018-12-07T07:27:06.599Z,99.99
2018-12-07T07:28:06.620Z,99.99
2018-12-07T07:29:06.577Z,99.72
2018-12-07T07:30:19.277Z,99.99
2018-12-07T07:31:06.554Z,99.99
2018-12-07T07:32:06.543Z,99.99
2018-12-07T07:33:06.533Z,99.99
2018-12-07T07:34:06.571Z,99.99
2018-12-07T07:35:06.515Z,99.82
2018-12-07T07:36:06.501Z,99.93
2018-12-07T07:37:06.493Z,99.99
2018-12-07T07:38:06.490Z,99.87
2018-12-07T07:39:06.468Z,99.99
2018-12-07T07:40:06.496Z,99.99
2018-12-07T07:41:06.447Z,99.93
2018-12-07T07:42:06.439Z,99.99
2018-12-07T07:43:06.438Z,99.99
2018-12-07T07:44:06.420Z,99.19
2018-12-07T07:45:06.409Z,99.51
2018-12-07T07:46:06.436Z,99.82
2018-12-07T07:47:06.383Z,99.08
2018-12-07T07:48:06.377Z,99.82
2018-12-07T07:49:06.370Z,99.82
2018-12-07T07:50:06.355Z,99.61
2018-12-07T07:51:06.342Z,99.61
2018-12-07T07:52:06.592Z,99.51
2018-12-07T07:53:06.318Z,99.40
2018-12-07T07:54:06.307Z,99.40
2018-12-07T07:55:06.309Z,99.67
2018-12-07T07:56:06.295Z,99.46
2018-12-07T07:57:06.278Z,99.04
2018-12-07T07:58:07.060Z,98.94
2018-12-07T07:59:06.255Z,99.04
2018-12-07T08:00:06.245Z,99.15
2018-12-07T08:01:16.338Z,99.04
2018-12-07T08:02:06.230Z,98.72
2018-12-07T08:03:06.215Z,99.25
2018-12-07T08:04:06.221Z,99.46
2018-12-07T08:05:06.214Z,99.15
2018-12-07T08:06:06.186Z,98.94
2018-12-07T08:07:06.173Z,99.15
2018-12-07T08:08:06.161Z,99.25
2018-12-07T08:09:06.155Z,99.36
2018-12-07T08:10:06.182Z,99.25
2018-12-07T08:11:06.126Z,99.31
2018-12-07T08:12:06.116Z,99.15
2018-12-07T08:13:06.110Z,99.15
2018-12-07T08:14:06.106Z,99.04
2018-12-07T08:15:06.085Z,99.04
2018-12-07T08:16:06.114Z,99.10
2018-12-07T08:17:06.063Z,99.15
2018-12-07T08:18:06.055Z,99.00
2018-12-07T08:19:06.052Z,99.31
2018-12-07T08:20:06.044Z,99.10
2018-12-07T08:21:06.022Z,99.21
2018-12-07T08:22:06.057Z,99.63
2018-12-07T08:23:05.999Z,99.69
2018-12-07T08:24:05.991Z,99.58
2018-12-07T08:25:05.978Z,99.79
2018-12-07T08:26:05.975Z,99.99
2018-12-07T08:27:05.955Z,99.90
2018-12-07T08:28:06.743Z,99.99
2018-12-07T08:29:05.934Z,99.99
2018-12-07T08:30:05.926Z,99.99
2018-12-07T08:31:05.918Z,99.99
2018-12-07T08:32:16.001Z,99.99
2018-12-07T08:33:05.892Z,99.99
2018-12-07T08:34:05.921Z,99.99
2018-12-07T08:35:05.874Z,99.99
2018-12-07T08:36:05.865Z,99.99
2018-12-07T08:37:05.861Z,99.99
2018-12-07T08:38:05.838Z,99.99
2018-12-07T08:39:05.836Z,99.99
2018-12-07T08:40:05.855Z,99.99
2018-12-07T08:41:05.807Z,99.99
2018-12-07T08:42:06.937Z,99.99
2018-12-07T08:43:05.785Z,99.99
2018-12-07T08:44:05.778Z,99.99
2018-12-07T08:45:05.773Z,99.99
2018-12-07T08:46:05.793Z,99.67
2018-12-07T08:47:05.744Z,99.99
2018-12-07T08:48:05.739Z,99.67
2018-12-07T08:49:05.721Z,99.67
2018-12-07T08:50:05.714Z,99.46
2018-12-07T08:51:05.704Z,99.77
2018-12-07T08:52:06.119Z,99.46
2018-12-07T08:53:05.679Z,99.67
2018-12-07T08:54:05.666Z,99.15
2018-12-07T08:55:05.658Z,99.67
2018-12-07T08:56:05.651Z,99.98
2018-12-07T08:57:05.640Z,99.63
2018-12-07T08:58:06.117Z,99.73
2018-12-07T08:59:05.617Z,99.10
2018-12-07T09:00:05.604Z,99.10
2018-12-07T09:01:05.592Z,99.52
2018-12-07T09:02:05.586Z,99.63
2018-12-07T09:03:17.612Z,99.63
2018-12-07T09:04:05.567Z,99.63
2018-12-07T09:05:05.548Z,99.94
2018-12-07T09:06:05.544Z,99.68
2018-12-07T09:07:05.534Z,99.68
2018-12-07T09:08:05.517Z,99.63
2018-12-07T09:09:05.524Z,99.05
2018-12-07T09:10:05.496Z,99.16
2018-12-07T09:11:05.493Z,99.16
2018-12-07T09:12:05.479Z,99.05
2018-12-07T09:13:05.464Z,98.95
2018-12-07T09:14:05.454Z,99.27
2018-12-07T09:15:05.482Z,99.37
2018-12-07T09:16:05.436Z,99.37
2018-12-07T09:17:05.424Z,98.85
2018-12-07T09:18:05.411Z,98.74
2018-12-07T09:19:05.407Z,98.85
2018-12-07T09:20:05.386Z,99.16
2018-12-07T09:21:05.449Z,98.95
2018-12-07T09:22:05.384Z,98.43
2018-12-07T09:23:05.359Z,98.74
2018-12-07T09:24:05.351Z,99.27
2018-12-07T09:25:05.332Z,98.85
2018-12-07T09:26:05.329Z,98.95
2018-12-07T09:27:06.107Z,99.37
2018-12-07T09:28:05.309Z,98.95
2018-12-07T09:29:05.290Z,98.95
2018-12-07T09:30:05.279Z,98.95
2018-12-07T09:31:05.270Z,99.16
2018-12-07T09:32:05.261Z,98.85
2018-12-07T09:33:06.789Z,98.85
2018-12-07T09:34:15.829Z,98.69
2018-12-07T09:35:05.300Z,98.74
2018-12-07T09:36:05.214Z,98.69
2018-12-07T09:37:05.206Z,98.69
2018-12-07T09:38:05.277Z,98.69
2018-12-07T09:39:05.226Z,99.01
2018-12-07T09:40:05.179Z,99.01
2018-12-07T09:41:05.170Z,98.38
2018-12-07T09:42:05.154Z,98.38
2018-12-07T09:43:05.141Z,98.34
2018-12-07T09:44:05.131Z,98.18
2018-12-07T09:45:05.644Z,98.28
2018-12-07T09:46:05.111Z,98.18
2018-12-07T09:47:05.101Z,97.75
2018-12-07T09:48:05.092Z,98.38
2018-12-07T09:49:05.076Z,97.92
2018-12-07T09:50:05.066Z,97.92
2018-12-07T09:51:05.200Z,97.75
2018-12-07T09:52:05.046Z,97.65
2018-12-07T09:53:05.040Z,97.92
2018-12-07T09:54:05.024Z,97.96
2018-12-07T09:55:05.012Z,98.02
2018-12-07T09:56:04.999Z,97.71
2018-12-07T09:57:05.029Z,97.55
2018-12-07T09:58:04.980Z,97.75
2018-12-07T09:59:04.975Z,97.96
2018-12-07T10:00:04.968Z,97.81
2018-12-07T10:01:04.950Z,97.96
2018-12-07T10:02:04.941Z,97.86
2018-12-07T10:03:04.958Z,97.65
2018-12-07T10:04:04.916Z,97.65
2018-12-07T10:05:15.317Z,97.65
2018-12-07T10:06:04.898Z,97.86
2018-12-07T10:07:04.881Z,97.65
2018-12-07T10:08:04.875Z,97.75
2018-12-07T10:09:04.903Z,97.96
2018-12-07T10:10:04.848Z,97.96
2018-12-07T10:11:04.837Z,98.07
2018-12-07T10:12:04.842Z,98.24
2018-12-07T10:13:08.142Z,98.18
2018-12-07T10:14:04.811Z,97.86
2018-12-07T10:15:04.815Z,97.81
2018-12-07T10:16:04.788Z,97.86
2018-12-07T10:17:04.785Z,97.65
2018-12-07T10:18:04.768Z,98.07
2018-12-07T10:19:04.751Z,97.86
2018-12-07T10:20:04.740Z,97.75
2018-12-07T10:21:04.748Z,97.23
2018-12-07T10:22:04.724Z,97.86
2018-12-07T10:23:04.716Z,97.86
2018-12-07T10:24:04.702Z,97.02
2018-12-07T10:25:04.689Z,97.08
2018-12-07T10:26:04.676Z,97.19
2018-12-07T10:27:05.166Z,96.71
2018-12-07T10:28:04.662Z,96.39
2018-12-07T10:29:04.655Z,96.77
2018-12-07T10:30:04.634Z,96.45
2018-12-07T10:31:04.633Z,96.56
2018-12-07T10:32:04.612Z,96.56
2018-12-07T10:33:04.643Z,96.66
2018-12-07T10:34:04.589Z,96.71
2018-12-07T10:35:04.590Z,96.98
2018-12-07T10:36:14.612Z,96.61
2018-12-07T10:37:04.562Z,96.56
2018-12-07T10:38:04.549Z,96.61
2018-12-07T10:39:04.579Z,95.56
2018-12-07T10:40:04.526Z,95.41
2018-12-07T10:41:04.522Z,96.39
2018-12-07T10:42:04.505Z,95.72
2018-12-07T10:43:04.503Z,95.62
2018-12-07T10:44:04.489Z,96.04
2018-12-07T10:45:04.517Z,95.76
2018-12-07T10:46:04.464Z,95.72
2018-12-07T10:47:04.448Z,95.72
2018-12-07T10:48:04.436Z,95.51
2018-12-07T10:49:04.442Z,94.78
2018-12-07T10:50:04.418Z,95.09
2018-12-07T10:51:07.930Z,94.99
2018-12-07T10:52:04.398Z,95.41
2018-12-07T10:53:04.388Z,95.98
2018-12-07T10:54:04.373Z,95.51
2018-12-07T10:55:04.372Z,95.56
2018-12-07T10:56:04.368Z,95.41
2018-12-07T10:57:04.381Z,95.03
2018-12-07T10:58:04.332Z,94.93
2018-12-07T10:59:04.323Z,94.99
2018-12-07T11:00:04.313Z,94.93
2018-12-07T11:01:04.297Z,94.46
2018-12-07T11:02:04.290Z,94.30
2018-12-07T11:03:04.330Z,94.20
2018-12-07T11:04:04.268Z,94.46
2018-12-07T11:05:04.256Z,94.62
2018-12-07T11:06:04.249Z,94.68
2018-12-07T11:07:14.687Z,94.93
2018-12-07T11:08:04.225Z,94.93
2018-12-07T11:09:04.256Z,94.82
2018-12-07T11:10:04.206Z,95.25
2018-12-07T11:11:04.202Z,94.82
2018-12-07T11:12:04.179Z,94.93
2018-12-07T11:13:04.170Z,94.51
2018-12-07T11:14:04.168Z,94.40
2018-12-07T11:15:04.192Z,94.30
2018-12-07T11:16:04.138Z,94.51
2018-12-07T11:17:04.136Z,94.30
2018-12-07T11:18:04.114Z,94.93
2018-12-07T11:19:04.111Z,94.20
2018-12-07T11:20:04.093Z,94.20
2018-12-07T11:21:04.876Z,94.20
2018-12-07T11:22:04.078Z,94.30
2018-12-07T11:23:04.060Z,94.30
2018-12-07T11:24:04.054Z,93.26
2018-12-07T11:25:04.042Z,93.15
2018-12-07T11:26:04.031Z,93.46
2018-12-07T11:27:04.066Z,93.67
2018-12-07T11:28:04.014Z,93.46
2018-12-07T11:29:03.998Z,93.46
2018-12-07T11:30:03.992Z,92.83
2018-12-07T11:31:03.979Z,93.26
2018-12-07T11:32:03.968Z,93.36
2018-12-07T11:33:03.976Z,93.99
2018-12-07T11:34:03.943Z,93.40
2018-12-07T11:35:03.931Z,93.40
2018-12-07T11:36:08.077Z,93.36
2018-12-07T11:37:03.913Z,93.26
2018-12-07T11:38:14.237Z,92.83
2018-12-07T11:39:03.893Z,93.04
2018-12-07T11:40:03.877Z,93.40
2018-12-07T11:41:03.869Z,94.09
2018-12-07T11:42:03.857Z,94.20
2018-12-07T11:43:03.850Z,93.51
2018-12-07T11:44:03.857Z,94.45
2018-12-07T11:45:03.833Z,94.24
2018-12-07T11:46:03.816Z,94.24
2018-12-07T11:47:03.801Z,94.34
2018-12-07T11:48:03.790Z,93.93
2018-12-07T11:49:03.789Z,94.34
2018-12-07T11:50:04.210Z,94.56
2018-12-07T11:51:03.758Z,94.34
2018-12-07T11:52:03.747Z,94.24
2018-12-07T11:53:03.741Z,94.34
2018-12-07T11:54:03.733Z,94.03
2018-12-07T11:55:03.720Z,93.93
2018-12-07T11:56:03.746Z,93.71
2018-12-07T11:57:03.702Z,93.51
2018-12-07T11:58:03.688Z,93.93
2018-12-07T11:59:03.681Z,93.51
2018-12-07T12:00:03.667Z,93.51
2018-12-07T12:01:03.652Z,93.82
2018-12-07T12:02:03.685Z,94.24
2018-12-07T12:03:03.631Z,93.82
2018-12-07T12:04:03.625Z,94.24
2018-12-07T12:05:03.613Z,94.97
2018-12-07T12:06:03.607Z,94.56
2018-12-07T12:07:03.586Z,94.76
2018-12-07T12:08:04.209Z,94.76
2018-12-07T12:09:14.144Z,95.18
2018-12-07T12:10:03.561Z,95.18
2018-12-07T12:11:03.547Z,95.01
2018-12-07T12:12:03.539Z,95.07
2018-12-07T12:13:03.531Z,94.56
2018-12-07T12:14:03.562Z,94.97
2018-12-07T12:15:03.503Z,95.07
2018-12-07T12:16:03.493Z,94.97
2018-12-07T12:17:03.516Z,95.18
2018-12-07T12:18:03.475Z,94.91
2018-12-07T12:19:03.461Z,94.45
2018-12-07T12:20:03.467Z,94.45
2018-12-07T12:21:03.437Z,94.60
2018-12-07T12:22:03.434Z,94.45
2018-12-07T12:23:03.419Z,94.45
2018-12-07T12:24:03.410Z,94.70
2018-12-07T12:25:03.394Z,94.66
2018-12-07T12:26:03.424Z,94.97
2018-12-07T12:27:03.372Z,94.24
2018-12-07T12:28:03.367Z,94.81
2018-12-07T12:29:03.355Z,94.38
2018-12-07T12:30:03.340Z,94.34
2018-12-07T12:31:03.334Z,95.18
2018-12-07T12:32:03.367Z,94.66
2018-12-07T12:33:03.313Z,95.01
2018-12-07T12:34:03.300Z,95.12
2018-12-07T12:35:03.293Z,95.50
2018-12-07T12:36:03.284Z,95.70
2018-12-07T12:37:03.272Z,95.54
2018-12-07T12:38:03.290Z,95.64
2018-12-07T12:39:03.246Z,95.86
2018-12-07T12:40:13.413Z,95.86
2018-12-07T12:41:03.221Z,95.54
2018-12-07T12:42:03.212Z,95.75
2018-12-07T12:43:03.205Z,95.75
2018-12-07T12:44:03.241Z,95.96
2018-12-07T12:45:03.183Z,95.64
2018-12-07T12:46:03.169Z,95.12
2018-12-07T12:47:03.165Z,94.91
2018-12-07T12:48:03.157Z,95.12
2018-12-07T12:49:03.144Z,94.91
2018-12-07T12:50:03.173Z,95.23
2018-12-07T12:51:03.117Z,95.01
2018-12-07T12:52:03.192Z,95.12